createdAt,value
2018-12-29T00:03:15.342Z,32.27
2018-12-29T00:06:03.582Z,22.30
2018-12-29T00:08:51.850Z,25.27
2018-12-29T00:11:40.105Z,31.73
2018-12-29T00:14:28.363Z,34.33
2018-12-29T00:17:16.667Z,20.17
2018-12-29T00:20:05.218Z,12.30
2018-12-29T00:22:53.883Z,19.47
2018-12-29T00:25:42.219Z,17.00
2018-12-29T00:28:30.467Z,20.87
2018-12-29T00:31:18.725Z,19.80
2018-12-29T00:34:06.978Z,22.73
2018-12-29T00:36:48.177Z,16.87
2018-12-29T00:39:29.066Z,11.73
2018-12-29T00:42:10.496Z,15.53
2018-12-29T00:44:51.877Z,31.23
2018-12-29T00:47:33.110Z,17.33
2018-12-29T00:50:14.166Z,21.20
2018-12-29T00:52:55.358Z,19.70
2018-12-29T00:55:36.673Z,37.40
2018-12-29T00:58:17.694Z,33.17
2018-12-29T01:00:58.834Z,23.03
2018-12-29T01:03:40.114Z,27.53
2018-12-29T01:06:20.835Z,17.97
2018-12-29T01:09:02.736Z,28.90
2018-12-29T01:11:44.529Z,32.33
2018-12-29T01:14:25.882Z,31.87
2018-12-29T01:17:06.805Z,20.17
2018-12-29T01:19:47.570Z,20.07
2018-12-29T01:22:28.731Z,26.60
2018-12-29T01:25:09.281Z,27.83
2018-12-29T01:27:49.927Z,20.13
2018-12-29T01:30:31.309Z,28.13
2018-12-29T01:33:12.289Z,30.57
2018-12-29T01:35:53.409Z,16.27
2018-12-29T01:38:34.465Z,28.37
2018-12-29T01:43:58.236Z,26.57
2018-12-29T01:46:39.442Z,33.80
2018-12-29T01:49:20.855Z,39.27
2018-12-29T01:52:01.544Z,22.27
2018-12-29T01:54:42.153Z,36.07
2018-12-29T01:57:23.338Z,27.27
2018-12-29T02:00:03.963Z,32.73
2018-12-29T02:02:45.335Z,37.93
2018-12-29T02:05:26.654Z,32.57
2018-12-29T02:08:08.177Z,21.73
2018-12-29T02:10:49.394Z,37.60
2018-12-29T03:10:38.223Z,28.23
2018-12-29T06:03:53.769Z,36.23
2018-12-29T08:08:53.271Z,33.13
2018-12-29T08:11:34.553Z,29.40
2018-12-29T08:14:15.842Z,37.63
2018-12-29T08:16:57.156Z,29.97
2018-12-29T08:19:38.270Z,29.80
2018-12-29T08:22:18.812Z,25.83
2018-12-29T08:24:59.636Z,26.63
2018-12-29T08:27:40.747Z,34.90
2018-12-29T08:30:21.653Z,29.57
2018-12-29T08:33:02.596Z,26.90
2018-12-29T08:35:43.410Z,29.60
2018-12-29T08:38:24.035Z,27.10
2018-12-29T08:41:04.637Z,43.50
2018-12-29T08:43:45.903Z,30.50
2018-12-29T08:46:27.120Z,29.93
2018-12-29T08:49:08.341Z,27.50
2018-12-29T08:51:48.884Z,27.70
2018-12-29T08:57:42.034Z,30.10
2018-12-29T09:00:22.678Z,25.47
2018-12-29T09:03:03.767Z,28.63
2018-12-29T09:05:45.269Z,21.03
2018-12-29T09:08:26.442Z,25.73
2018-12-29T09:11:07.821Z,28.73
2018-12-29T09:13:48.994Z,25.37
2018-12-29T09:16:30.460Z,20.23
2018-12-29T09:18:59.662Z,30.50
2018-12-29T09:21:47.913Z,21.30
2018-12-29T09:24:36.253Z,18.33
2018-12-29T09:27:24.504Z,29.13
2018-12-29T09:30:12.757Z,32.37
2018-12-29T09:33:00.997Z,20.00
2018-12-29T09:35:49.249Z,18.50
2018-12-29T09:38:30.458Z,20.00
2018-12-29T09:41:11.717Z,29.50
2018-12-29T10:25:49.197Z,21.97
2018-12-29T11:04:19.800Z,9.67
2018-12-29T11:07:00.297Z,17.10
2018-12-29T11:09:41.601Z,23.40
2018-12-29T11:12:22.138Z,24.53
2018-12-29T11:15:02.660Z,31.27
2018-12-29T11:17:43.854Z,15.13
2018-12-29T11:20:24.394Z,23.47
2018-12-29T11:23:05.741Z,24.97
2018-12-29T11:25:46.493Z,10.63
2018-12-29T11:28:27.857Z,9.30
2018-12-29T11:31:08.467Z,15.57
2018-12-29T11:33:49.887Z,16.97
2018-12-29T11:36:30.635Z,12.97
2018-12-29T11:39:11.675Z,30.47
2018-12-29T11:41:52.421Z,29.60
2018-12-29T11:44:33.532Z,8.97
2018-12-29T11:47:14.133Z,11.63
2018-12-29T11:49:55.288Z,18.40
2018-12-29T11:52:36.087Z,17.97
2018-12-29T11:55:17.523Z,20.50
2018-12-29T11:57:58.870Z,15.47
2018-12-29T12:00:39.570Z,15.30
2018-12-29T12:03:20.132Z,9.00
2018-12-29T12:06:01.373Z,12.37
2018-12-29T12:08:42.587Z,16.43
2018-12-29T12:11:23.713Z,13.30
2018-12-29T12:14:04.393Z,20.60
2018-12-29T12:16:45.646Z,19.00
2018-12-29T12:19:26.895Z,14.40
2018-12-29T12:22:07.594Z,14.67
2018-12-29T12:24:48.962Z,20.20
2018-12-29T12:27:30.358Z,14.97
2018-12-29T12:30:11.513Z,28.50
2018-12-29T12:32:52.459Z,19.67
2018-12-29T12:35:33.353Z,14.23
2018-12-29T12:38:14.745Z,8.50
2018-12-29T12:40:56.321Z,15.70
2018-12-29T12:43:25.587Z,18.47
2018-12-29T12:46:15.638Z,18.50
2018-12-29T12:49:05.630Z,18.87
2018-12-29T12:51:54.021Z,20.80
2018-12-29T12:54:42.709Z,9.87
2018-12-29T12:57:32.740Z,15.63
2018-12-29T13:00:22.723Z,19.67
2018-12-29T13:03:12.705Z,20.10
2018-12-29T13:06:00.962Z,12.03
2018-12-29T13:08:49.201Z,15.67
2018-12-29T13:11:38.122Z,24.93
2018-12-29T13:14:26.441Z,12.83
2018-12-29T13:17:14.979Z,16.53
2018-12-29T13:20:05.017Z,7.50
2018-12-29T13:22:53.273Z,16.73
2018-12-29T13:25:42.221Z,24.70
2018-12-29T13:28:30.480Z,8.20
2018-12-29T13:31:18.738Z,24.80
2018-12-29T13:34:07.054Z,13.33
2018-12-29T13:36:55.680Z,17.50
2018-12-29T13:39:38.467Z,19.70
2018-12-29T13:42:19.650Z,18.33
2018-12-29T13:45:01.315Z,23.93
2018-12-29T13:47:42.554Z,17.80
2018-12-29T13:50:23.600Z,19.17
2018-12-29T13:53:04.234Z,16.33
2018-12-29T13:55:44.745Z,20.07
2018-12-29T13:58:25.585Z,11.10
2018-12-29T14:01:06.938Z,17.40
2018-12-29T14:03:48.170Z,17.83
2018-12-29T14:06:29.493Z,24.70
2018-12-29T14:09:10.566Z,18.87
2018-12-29T14:11:52.174Z,18.87
2018-12-29T14:14:32.917Z,23.37
2018-12-29T14:17:14.244Z,11.13
2018-12-29T14:19:55.555Z,12.87
2018-12-29T14:22:36.410Z,9.57
2018-12-29T14:25:17.608Z,8.40
2018-12-29T14:27:58.926Z,8.97
2018-12-29T14:30:39.482Z,17.27
2018-12-29T14:33:20.473Z,15.77
2018-12-29T14:36:01.998Z,6.00
2018-12-29T14:38:43.252Z,7.50
2018-12-29T14:41:24.397Z,10.37
2018-12-29T14:44:03.843Z,15.10
2018-12-29T14:46:52.176Z,11.07
2018-12-29T14:49:40.481Z,8.43
2018-12-29T14:52:28.817Z,13.83
2018-12-29T14:55:17.151Z,7.43
2018-12-29T14:58:05.479Z,13.87
2018-12-29T15:00:53.727Z,10.20
2018-12-29T15:03:41.970Z,10.37
2018-12-29T15:06:30.706Z,12.00
2018-12-29T15:09:19.013Z,8.23
2018-12-29T15:12:08.981Z,9.97
2018-12-29T15:14:57.293Z,7.70
2018-12-29T15:17:45.040Z,10.90
2018-12-29T15:20:35.022Z,11.00
2018-12-29T15:23:25.081Z,5.30
2018-12-29T15:26:13.461Z,9.87
2018-12-29T15:29:02.181Z,22.00
2018-12-29T15:31:50.580Z,13.07
2018-12-29T15:34:38.825Z,9.13
2018-12-29T15:37:27.473Z,8.67
2018-12-29T15:40:08.548Z,5.73
2018-12-29T15:42:49.606Z,11.20
2018-12-29T15:45:31.117Z,6.23
2018-12-29T15:48:12.180Z,10.53
2018-12-29T15:50:53.488Z,6.40
2018-12-29T15:53:34.920Z,6.43
2018-12-29T15:56:15.470Z,6.00
2018-12-29T15:59:17.246Z,7.60
2018-12-29T16:01:58.367Z,10.47
2018-12-29T16:04:39.785Z,10.23
2018-12-29T16:07:20.564Z,14.20
2018-12-29T16:10:01.170Z,13.10
2018-12-29T16:12:42.376Z,18.10
2018-12-29T16:15:23.350Z,8.07
2018-12-29T16:18:04.915Z,13.00
2018-12-29T16:20:53.103Z,12.57
2018-12-29T16:26:47.370Z,9.97
2018-12-29T16:29:28.702Z,14.63
2018-12-29T16:32:09.934Z,6.40
2018-12-29T16:34:51.481Z,10.17
2018-12-29T16:37:32.716Z,18.70
2018-12-29T16:43:18.076Z,11.30
2018-12-29T16:45:59.392Z,9.47
2018-12-29T16:51:52.677Z,11.50
2018-12-29T16:54:33.827Z,5.53
2018-12-29T16:57:14.430Z,5.90
2018-12-29T16:59:55.627Z,10.07
2018-12-29T17:02:36.841Z,8.67
2018-12-29T17:05:17.733Z,7.83
2018-12-29T17:07:58.879Z,9.10
2018-12-29T17:10:39.673Z,14.43
2018-12-29T17:13:20.733Z,7.73
2018-12-29T17:16:01.368Z,11.63
2018-12-29T17:18:42.919Z,7.13
2018-12-29T17:21:24.037Z,10.00
2018-12-29T17:24:05.185Z,7.80
2018-12-29T17:26:45.654Z,6.93
2018-12-29T17:29:27.141Z,9.43
2018-12-29T17:32:08.693Z,7.43
2018-12-29T17:34:49.687Z,11.53
2018-12-29T17:37:30.983Z,11.10
2018-12-29T17:40:11.404Z,7.37
2018-12-29T17:42:52.379Z,9.93
2018-12-29T17:45:33.527Z,11.73
2018-12-29T17:48:14.890Z,5.97
2018-12-29T17:50:55.711Z,6.00
2018-12-29T17:53:36.466Z,7.83
2018-12-29T17:56:17.113Z,8.83
2018-12-29T17:58:58.318Z,9.40
2018-12-29T18:01:39.897Z,16.43
2018-12-29T18:04:21.338Z,10.00
2018-12-29T18:07:02.524Z,9.77
2018-12-29T18:09:43.587Z,12.77
2018-12-29T18:12:24.683Z,7.20
2018-12-29T18:15:05.911Z,13.17
2018-12-29T18:17:47.369Z,13.73
2018-12-29T18:20:28.574Z,9.07
2018-12-29T18:26:29.073Z,12.07
2018-12-29T18:29:10.166Z,23.47
2018-12-29T18:31:51.473Z,17.13
2018-12-29T18:34:32.621Z,15.93
2018-12-29T18:37:14.129Z,18.80
2018-12-29T18:39:55.218Z,13.57
2018-12-29T18:42:36.379Z,17.80
2018-12-29T18:45:17.197Z,12.73
2018-12-29T18:47:58.397Z,17.17
2018-12-29T18:50:39.020Z,13.07
2018-12-29T18:53:20.237Z,12.33
2018-12-29T18:56:01.818Z,8.27
2018-12-29T18:58:42.465Z,16.83
2018-12-29T19:01:22.899Z,7.90
2018-12-29T19:04:03.742Z,15.57
2018-12-29T19:06:45.185Z,19.40
2018-12-29T19:09:26.457Z,9.47
2018-12-29T19:12:11.146Z,22.33
2018-12-29T19:14:50.024Z,31.60
2018-12-29T19:17:30.603Z,19.80
2018-12-29T19:20:11.953Z,25.40
2018-12-29T19:22:52.786Z,18.77
2018-12-29T19:25:33.826Z,23.20
2018-12-29T19:28:14.976Z,17.87
2018-12-29T19:30:56.438Z,17.77
2018-12-29T19:33:37.693Z,19.27
2018-12-29T19:36:18.409Z,18.33
2018-12-29T19:38:59.898Z,24.33
2018-12-29T19:41:46.591Z,17.30
2018-12-29T19:44:23.186Z,17.67
2018-12-29T19:47:04.554Z,20.20
2018-12-29T19:49:45.941Z,17.33
2018-12-29T19:52:26.402Z,19.77
2018-12-29T19:55:06.885Z,23.87
2018-12-29T19:57:48.465Z,20.70
2018-12-29T20:00:29.736Z,27.60
2018-12-29T20:03:11.288Z,19.77
2018-12-29T20:05:52.134Z,22.90
2018-12-29T20:08:33.117Z,18.20
2018-12-29T20:11:14.157Z,25.23
2018-12-29T20:13:55.601Z,20.50
2018-12-29T20:16:36.911Z,23.77
2018-12-29T20:19:18.115Z,21.87
2018-12-29T20:21:58.644Z,20.47
2018-12-29T20:24:39.795Z,25.70
2018-12-29T20:27:21.112Z,26.67
2018-12-29T20:30:02.943Z,21.73
2018-12-29T20:32:44.068Z,26.07
2018-12-29T20:35:24.643Z,25.70
2018-12-29T20:38:06.265Z,26.30
2018-12-29T20:40:47.170Z,26.40
2018-12-29T20:43:28.609Z,28.17
2018-12-29T20:46:10.069Z,24.37
2018-12-29T20:48:51.519Z,25.77
2018-12-29T20:51:32.767Z,29.37
2018-12-29T20:54:17.046Z,17.97
2018-12-29T20:56:58.443Z,26.10
2018-12-29T20:59:40.184Z,24.07
2018-12-29T21:02:21.616Z,27.63
2018-12-29T21:05:02.232Z,22.30
2018-12-29T21:07:43.170Z,30.03
2018-12-29T21:10:24.173Z,33.17
2018-12-29T21:13:04.634Z,23.67
2018-12-29T21:15:46.130Z,26.60
2018-12-29T21:18:27.517Z,25.00
2018-12-29T21:21:08.833Z,23.43
2018-12-29T21:23:49.943Z,21.63
2018-12-29T21:26:30.741Z,28.00
2018-12-29T21:29:11.917Z,24.97
2018-12-29T21:31:52.785Z,29.30
2018-12-29T21:34:33.713Z,23.17
2018-12-29T21:37:15.380Z,19.17
2018-12-29T21:39:56.540Z,22.90
2018-12-29T21:42:37.035Z,19.70
2018-12-29T21:45:17.581Z,21.90
2018-12-29T21:47:58.881Z,19.83
2018-12-29T21:50:39.594Z,21.03
2018-12-29T21:53:21.079Z,23.57
2018-12-29T21:56:02.525Z,17.43
2018-12-29T21:58:43.506Z,19.33
2018-12-29T22:01:24.413Z,27.40
2018-12-29T22:04:05.613Z,19.80
2018-12-29T22:06:47.034Z,21.33
2018-12-29T22:09:27.633Z,18.97
2018-12-29T22:12:09.214Z,21.43
2018-12-29T22:14:50.089Z,21.90
2018-12-29T22:17:31.374Z,26.53
2018-12-29T22:20:12.343Z,19.53
2018-12-29T22:22:53.524Z,19.93
2018-12-29T22:25:34.968Z,21.67
2018-12-29T22:28:16.016Z,21.13
2018-12-29T22:30:56.497Z,15.60
2018-12-29T22:33:37.121Z,19.30
2018-12-29T22:36:18.492Z,19.10
2018-12-29T22:38:59.201Z,15.83
2018-12-29T22:41:40.485Z,15.50
2018-12-29T22:44:09.736Z,14.57
2018-12-29T22:46:58.445Z,17.73
2018-12-29T22:49:46.782Z,16.03
2018-12-29T22:52:35.213Z,15.23
2018-12-29T22:55:23.577Z,11.60
2018-12-29T22:58:11.994Z,16.37
2018-12-29T23:01:00.663Z,16.90
2018-12-29T23:03:50.376Z,15.37
2018-12-29T23:06:38.710Z,18.83
2018-12-29T23:09:29.048Z,16.23
2018-12-29T23:12:17.442Z,13.03
2018-12-29T23:15:05.738Z,13.33
2018-12-29T23:17:54.305Z,12.53
2018-12-29T23:20:48.913Z,10.20
2018-12-29T23:23:32.611Z,13.00
2018-12-29T23:26:22.666Z,12.47
2018-12-29T23:29:10.986Z,8.90
2018-12-29T23:31:59.371Z,16.37
2018-12-29T23:34:42.016Z,18.43
2018-12-29T23:37:23.540Z,11.53
2018-12-29T23:40:04.755Z,12.43
2018-12-29T23:42:45.537Z,9.87
2018-12-29T23:45:26.945Z,9.70
2018-12-29T23:48:08.087Z,13.77
2018-12-29T23:50:49.287Z,8.60
2018-12-29T23:53:29.949Z,14.53
2018-12-29T23:56:11.460Z,6.27
2018-12-29T23:58:52.617Z,14.33
